Edgefield, SC (29824)

11:47 PM EDT on August 30, 2015 (GMT -0400)
Columbia Road | | Change Station
CLOSE
Current Station
Personal Weather Station
Location: Edgefield, SC
Elevation: 550 ft
Nearby Weather Stations

Elev 550 ft 33.78 °N, 81.92 °W | Updated 6 seconds ago

Mostly Cloudy
Mostly Cloudy
66.9 °F
Feels Like 66.9 °F
N
0.0
Wind Variable Wind from ESE
Gusts 1.0 mph

Today
High -- | Low -- °F
--% Chance of Precip.
Yesterday
High -- | Low -- °F
Precip. -- in
6:59 AM 7:56 PM
Full, 97% visible
Pressure 30.13 in
Visibility 10.0 miles
Clouds Mostly Cloudy 300 ft
Mostly Cloudy 1600 ft
Mostly Cloudy 8000 ft
Dew Point 66 °F
Humidity 98%
Rainfall 4.70 in
Snow Depth Not available.
UV 0 out of 12
Pollen 1.90 out of 12
Air Quality Not available.
Flu Activity Not available.
METAR KAIK 310335Z AUTO 06005KT 10SM BKN003 BKN016 BKN080 19/18 A3013 RMK AO2
Pressure 30.13 in
Visibility 10.0 miles
Clouds Mostly Cloudy 300 ft
Mostly Cloudy 1600 ft
Mostly Cloudy 8000 ft
Dew Point 66 °F
Humidity 98%
Rainfall 4.70 in
Snow Depth Not available.
UV 0 out of 12
Pollen 1.90 out of 12
Air Quality Not available.
Flu Activity Not available.
METAR KAIK 310335Z AUTO 06005KT 10SM BKN003 BKN016 BKN080 19/18 A3013 RMK AO2

10-Day Weather Forecast

×

Almanac

Astronomy

Aug. 30, 2015 Rise Set
Actual Time
Civil Twilight
Nautical Twilight
Astronomical Twilight
Moon
Length of Visible Light
Length of Day
Tomorrow will be .
, % of the Moon is Illuminated

Today's Extremes

State Highs State Lows

Community

WunderPhotos

Upload Photos

1,851,179 photos uploaded!

WunderBlogs® & News

Nearby

Air Quality

  Air Quality AQ Index Pollutant
Not available.

Snow Depth

Station Depth Elevation

Earthquake Activity

City Distance Mag. Time & Date
Minimum magnitude displayed is 2.5.

Coastal Water Temperatures

Place Temperature

Stations

Nearby Weather Stations

Station Location Temp. Windchill Dew Point Humidity Wind Precip. Elev Updated Type